Time;durP1;ratioP1;P1;durP2;ratioP2;P2;SDS_P1;SDS_P2;PMS_P1;PMS_P2;Temp;Humidity;BMP_temperature;BMP_pressure;BME280_temperature;BME280_humidity;BME280_pressure;Samples;Min_cycle;Max_cycle;Signal;HPM_P1;HPM_P2
2023/04/21 00:01:08;;;;;;;2.22;1.00;;;;;;;29.20;28.46;100167.22;7394443;19;20014;-58
2023/04/21 00:03:37;;;;;;;4.22;1.70;;;;;;;28.81;28.77;100159.00;7394837;19;20098;-58
2023/04/21 00:06:05;;;;;;;0.88;0.88;;;;;;;29.33;28.61;100157.41;7393241;19;20558;-58
2023/04/21 00:08:32;;;;;;;1.10;1.05;;;;;;;29.29;28.45;100159.97;7394310;19;20356;-58
2023/04/21 00:10:58;;;;;;;1.92;1.33;;;;;;;29.29;28.39;100154.25;7394426;19;20477;-58
2023/04/21 00:13:24;;;;;;;1.45;0.95;;;;;;;28.88;29.05;100161.78;7391165;19;20393;-58
2023/04/21 00:15:50;;;;;;;7.15;1.40;;;;;;;28.82;28.97;100166.25;7397838;19;20031;-58
2023/04/21 00:18:16;;;;;;;2.63;1.58;;;;;;;28.87;28.97;100156.63;7393388;19;20007;-58
2023/04/21 00:20:43;;;;;;;4.85;1.77;;;;;;;28.60;29.15;100153.00;7391950;19;20074;-58
2023/04/21 00:23:10;;;;;;;1.30;1.20;;;;;;;28.51;29.65;100152.34;7393291;19;20530;-58
2023/04/21 00:25:36;;;;;;;2.10;1.60;;;;;;;27.93;30.07;100156.13;7392882;19;20003;-58
2023/04/21 00:28:02;;;;;;;5.50;1.27;;;;;;;27.88;30.10;100159.97;7392895;19;20018;-58
2023/04/21 00:30:28;;;;;;;6.40;2.17;;;;;;;27.92;30.26;100148.84;7396451;19;20018;-58
2023/04/21 00:32:54;;;;;;;2.03;1.63;;;;;;;27.91;30.32;100153.09;7391813;19;20015;-58
2023/04/21 00:35:22;;;;;;;10.57;1.63;;;;;;;27.53;30.66;100138.41;7391213;19;20112;-58
2023/04/21 00:37:49;;;;;;;2.05;1.55;;;;;;;27.35;30.75;100131.13;7390780;19;20560;-58
2023/04/21 00:40:15;;;;;;;1.30;1.20;;;;;;;27.28;30.83;100126.22;7395273;19;20010;-58
2023/04/21 00:42:41;;;;;;;6.60;1.77;;;;;;;27.20;30.87;100116.97;7392078;19;20022;-58
2023/04/21 00:45:08;;;;;;;1.25;1.15;;;;;;;27.63;30.75;100128.59;7395334;19;20026;-58
2023/04/21 00:47:34;;;;;;;3.72;1.58;;;;;;;27.57;30.50;100130.19;7392293;19;20070;-58
2023/04/21 00:50:03;;;;;;;6.75;2.05;;;;;;;28.15;30.05;100126.47;7395604;19;20019;-58
2023/04/21 00:52:30;;;;;;;2.80;1.23;;;;;;;27.65;30.90;100125.91;7390142;19;20034;-58
2023/04/21 00:54:58;;;;;;;3.45;1.88;;;;;;;28.36;30.05;100120.28;7398329;19;20456;-58
2023/04/21 00:57:26;;;;;;;1.45;1.35;;;;;;;28.07;30.06;100125.06;7400689;19;20018;-58
2023/04/21 00:59:53;;;;;;;8.13;1.65;;;;;;;28.47;29.94;100117.63;7400989;19;20471;-58
2023/04/21 01:02:21;;;;;;;3.03;1.33;;;;;;;28.19;30.27;100109.63;7399807;19;20025;-58
2023/04/21 01:04:47;;;;;;;2.60;1.70;;;;;;;27.99;30.50;100110.81;7398044;19;20460;-58
2023/04/21 01:07:13;;;;;;;2.08;1.42;;;;;;;28.46;30.03;100110.38;7397785;19;20021;-58
2023/04/21 01:09:40;;;;;;;1.73;1.63;;;;;;;28.56;30.15;100106.81;7402198;19;20484;-58
2023/04/21 01:12:10;;;;;;;10.15;2.78;;;;;;;28.51;30.00;100100.75;7399303;19;20030;-58
2023/04/21 01:14:38;;;;;;;2.28;1.52;;;;;;;28.46;30.23;100098.91;7401189;19;20018;-58
2023/04/21 01:17:06;;;;;;;2.15;1.88;;;;;;;28.45;29.88;100102.38;7399060;19;20010;-58
2023/04/21 01:19:38;;;;;;;1.52;1.42;;;;;;;28.46;30.07;100104.63;7399409;19;20018;-57
2023/04/21 01:22:10;;;;;;;3.03;1.40;;;;;;;28.47;29.87;100096.81;7397611;19;20036;-58
2023/04/21 01:24:37;;;;;;;6.95;2.28;;;;;;;28.69;30.11;100094.97;7397568;19;20345;-58
2023/04/21 01:27:08;;;;;;;2.10;1.67;;;;;;;28.79;30.15;100101.50;7398925;19;20074;-58
2023/04/21 01:29:34;;;;;;;1.60;1.33;;;;;;;28.70;30.17;100096.47;7401313;19;20011;-58
2023/04/21 01:32:06;;;;;;;6.43;2.08;;;;;;;28.46;30.30;100081.72;7397855;19;20394;-58
2023/04/21 01:34:32;;;;;;;1.35;1.25;;;;;;;28.37;30.10;100096.75;7399401;19;20065;-58
2023/04/21 01:36:59;;;;;;;1.25;1.17;;;;;;;28.32;30.20;100092.06;7399340;19;20159;-58
2023/04/21 01:39:25;;;;;;;2.72;1.60;;;;;;;28.41;30.23;100091.34;7400048;19;20014;-57
2023/04/21 01:41:54;;;;;;;1.88;1.45;;;;;;;28.39;30.12;100088.31;7398965;19;20010;-58
2023/04/21 01:44:20;;;;;;;3.30;1.38;;;;;;;28.17;30.64;100094.38;7399715;19;20014;-57
2023/04/21 01:46:46;;;;;;;7.07;2.53;;;;;;;28.09;30.67;100083.00;7396338;19;20011;-58
2023/04/21 01:49:12;;;;;;;1.45;1.35;;;;;;;28.01;30.55;100079.50;7399719;19;20350;-58
2023/04/21 01:51:38;;;;;;;1.48;1.27;;;;;;;28.25;30.42;100083.56;7395718;19;20006;-58
2023/04/21 01:54:05;;;;;;;1.33;1.23;;;;;;;28.20;30.29;100093.94;7397247;19;20031;-58
2023/04/21 01:56:31;;;;;;;13.45;1.70;;;;;;;27.24;31.57;100097.28;7397027;19;20052;-58
2023/04/21 01:58:57;;;;;;;1.88;1.75;;;;;;;27.38;31.16;100098.50;7397378;19;20074;-58
2023/04/21 02:01:23;;;;;;;16.02;1.85;;;;;;;27.74;30.78;100088.00;7396066;19;20007;-58
2023/04/21 02:03:49;;;;;;;3.05;0.98;;;;;;;27.16;31.37;100079.47;7395659;19;20036;-58
2023/04/21 02:06:16;;;;;;;5.20;1.45;;;;;;;26.84;32.00;100078.19;7396272;19;20015;-58
2023/04/21 02:08:42;;;;;;;0.70;0.70;;;;;;;26.15;32.86;100077.13;7398278;19;20034;-58
2023/04/21 02:11:08;;;;;;;1.63;1.00;;;;;;;27.22;31.98;100072.16;7398164;19;20018;-58
2023/04/21 02:13:35;;;;;;;1.17;1.00;;;;;;;27.53;31.34;100061.16;7394236;19;20019;-58
2023/04/21 02:16:01;;;;;;;2.05;1.58;;;;;;;27.49;31.83;100066.53;7401672;19;20017;-58
2023/04/21 02:18:29;;;;;;;1.95;1.73;;;;;;;27.34;31.88;100072.41;7396481;19;20010;-58
2023/04/21 02:20:55;;;;;;;13.20;2.53;;;;;;;27.33;31.84;100059.44;7393893;19;20018;-58
2023/04/21 02:23:21;;;;;;;4.22;2.25;;;;;;;26.95;31.93;100069.16;7394552;19;20010;-58
2023/04/21 02:25:47;;;;;;;1.42;0.98;;;;;;;26.72;32.62;100059.97;7394571;19;20015;-58
2023/04/21 02:28:13;;;;;;;2.47;1.48;;;;;;;26.70;32.63;100056.19;7395603;19;20032;-58
2023/04/21 02:30:39;;;;;;;1.38;1.27;;;;;;;26.48;32.84;100057.09;7396499;19;20506;-58
2023/04/21 02:33:05;;;;;;;2.40;1.23;;;;;;;26.51;32.83;100044.53;7393751;19;20015;-58
2023/04/21 02:35:32;;;;;;;4.22;2.33;;;;;;;25.35;34.36;100038.38;7395823;19;20014;-58
2023/04/21 02:37:58;;;;;;;1.92;1.73;;;;;;;24.89;34.80;100034.06;7395913;19;20026;-58
2023/04/21 02:40:25;;;;;;;1.40;1.00;;;;;;;25.86;33.77;100027.38;7400572;19;20006;-58
2023/04/21 02:42:51;;;;;;;3.55;1.90;;;;;;;26.00;33.38;100042.91;7395242;19;20022;-58
2023/04/21 02:45:18;;;;;;;7.93;1.88;;;;;;;22.91;37.21;100040.38;7399205;19;20018;-58
2023/04/21 02:47:44;;;;;;;5.30;2.08;;;;;;;21.74;39.52;100024.63;7395351;19;20468;-58
2023/04/21 02:50:12;;;;;;;1.83;1.50;;;;;;;21.53;40.15;100016.03;7400110;19;20036;-58
2023/04/21 02:52:38;;;;;;;1.55;1.25;;;;;;;20.84;41.36;100036.19;7395633;19;20015;-58
2023/04/21 02:55:05;;;;;;;5.88;1.83;;;;;;;20.21;43.36;100031.31;7399589;19;20059;-58
2023/04/21 02:57:31;;;;;;;1.45;1.38;;;;;;;20.26;44.29;100043.84;7393767;19;20338;-58
2023/04/21 02:59:59;;;;;;;1.98;1.88;;;;;;;19.93;45.26;100030.19;7397945;19;20048;-58
2023/04/21 03:02:25;;;;;;;9.80;1.52;;;;;;;20.02;46.26;100024.91;7394657;19;20011;-58
2023/04/21 03:04:52;;;;;;;2.35;1.30;;;;;;;19.98;46.60;100018.03;7396575;19;20459;-58
2023/04/21 03:07:18;;;;;;;2.95;1.25;;;;;;;20.02;46.81;100007.19;7395617;19;20011;-58
2023/04/21 03:09:44;;;;;;;4.75;1.50;;;;;;;19.27;48.95;100000.75;7398351;19;20003;-58
2023/04/21 03:12:10;;;;;;;1.95;1.05;;;;;;;21.29;45.34;99996.44;7393591;19;20018;-58
2023/04/21 03:14:36;;;;;;;4.13;1.40;;;;;;;20.48;46.05;100000.28;7397074;19;20036;-58
2023/04/21 03:17:02;;;;;;;4.03;1.38;;;;;;;18.73;50.31;100007.22;7391938;19;20019;-58
2023/04/21 03:19:31;;;;;;;4.00;1.55;;;;;;;18.61;51.98;100007.88;7396145;19;20010;-58
2023/04/21 03:21:58;;;;;;;1.50;1.42;;;;;;;18.54;53.71;100014.09;7393262;19;20022;-58
2023/04/21 03:24:24;;;;;;;2.80;1.15;;;;;;;18.44;54.83;100013.69;7393058;19;20023;-58
2023/04/21 03:26:50;;;;;;;3.08;1.48;;;;;;;19.72;51.79;100003.78;7395590;19;20334;-58
2023/04/21 03:29:16;;;;;;;2.90;1.75;;;;;;;19.32;52.26;100000.66;7396130;19;20022;-58
2023/04/21 03:31:43;;;;;;;4.68;1.13;;;;;;;20.95;49.65;100001.22;7392484;19;20046;-58
2023/04/21 03:34:10;;;;;;;0.88;0.77;;;;;;;21.91;46.22;99988.16;7393535;19;20029;-58
2023/04/21 03:36:36;;;;;;;3.58;1.85;;;;;;;19.61;51.69;99991.34;7391883;19;20011;-58
2023/04/21 03:39:02;;;;;;;3.95;2.28;;;;;;;19.90;51.29;99988.88;7393593;19;20019;-58
2023/04/21 03:41:29;;;;;;;1.83;1.63;;;;;;;19.23;53.37;99989.00;7394529;19;20010;-58
2023/04/21 03:43:55;;;;;;;4.00;1.02;;;;;;;19.67;53.44;99989.19;7393082;19;20011;-58
2023/04/21 03:46:21;;;;;;;4.90;1.35;;;;;;;20.90;51.81;99980.19;7393360;19;20056;-58
2023/04/21 03:48:47;;;;;;;1.70;1.30;;;;;;;19.62;54.03;99978.72;7394905;19;20040;-58
2023/04/21 03:51:14;;;;;;;0.75;0.75;;;;;;;19.99;53.03;99974.34;7393776;19;20022;-58
2023/04/21 03:53:40;;;;;;;1.48;1.00;;;;;;;19.30;55.76;99977.06;7393254;19;20338;-58
2023/04/21 03:56:07;;;;;;;2.20;1.50;;;;;;;19.98;54.25;99961.50;7393858;19;20011;-58
2023/04/21 03:58:33;;;;;;;3.53;1.23;;;;;;;19.35;57.54;99957.28;7393887;19;20041;-58
2023/04/21 04:00:59;;;;;;;3.63;1.90;;;;;;;21.05;52.29;99946.47;7393404;19;20355;-58
2023/04/21 04:03:26;;;;;;;5.68;1.15;;;;;;;20.11;54.59;99938.94;7394179;19;20011;-58
2023/04/21 04:05:52;;;;;;;1.95;1.23;;;;;;;19.98;56.08;99934.00;7394161;19;20036;-58
2023/04/21 04:08:18;;;;;;;2.35;1.42;;;;;;;19.35;56.72;99934.69;7392831;19;20014;-58
2023/04/21 04:10:44;;;;;;;3.22;1.42;;;;;;;20.25;54.74;99924.31;7391565;19;20022;-58
2023/04/21 04:13:10;;;;;;;2.42;1.67;;;;;;;20.34;54.94;99920.28;7392629;19;20022;-58
2023/04/21 04:15:36;;;;;;;7.32;1.90;;;;;;;21.09;52.84;99903.66;7392713;19;20010;-58
2023/04/21 04:18:03;;;;;;;2.10;1.00;;;;;;;20.98;53.18;99915.97;7392962;19;20515;-58
2023/04/21 04:20:29;;;;;;;1.73;1.52;;;;;;;21.18;52.70;99903.19;7397211;19;20010;-58
2023/04/21 04:22:55;;;;;;;3.75;1.25;;;;;;;19.14;57.70;99902.59;7392353;19;20112;-58
2023/04/21 04:25:21;;;;;;;3.72;1.25;;;;;;;20.02;57.70;99900.50;7392647;19;20011;-58
2023/04/21 04:27:49;;;;;;;4.13;1.42;;;;;;;19.01;59.59;99896.88;7393116;19;20019;-58
2023/04/21 04:30:15;;;;;;;6.20;1.55;;;;;;;19.47;59.08;99896.50;7404484;19;20011;-59
2023/04/21 04:32:41;;;;;;;7.35;0.98;;;;;;;18.38;65.63;99893.72;7400062;19;20075;-59
2023/04/21 04:35:08;;;;;;;2.83;1.27;;;;;;;19.41;62.16;99881.69;7399024;19;20014;-58
2023/04/21 04:37:36;;;;;;;1.48;1.05;;;;;;;18.58;64.00;99876.38;7400501;19;20011;-59
2023/04/21 04:40:09;;;;;;;2.58;0.88;;;;;;;18.00;66.90;99868.22;7403417;19;20014;-58
2023/04/21 04:42:36;;;;;;;7.22;1.85;;;;;;;17.15;74.16;99859.38;7398439;19;20017;-58
2023/04/21 04:45:02;;;;;;;3.60;1.65;;;;;;;18.10;73.59;99852.47;7400617;19;20042;-58
2023/04/21 04:47:28;;;;;;;2.03;1.63;;;;;;;21.68;56.86;99836.84;7399051;19;20021;-58
2023/04/21 04:49:54;;;;;;;1.73;1.58;;;;;;;21.38;55.44;99839.41;7402818;19;20011;-59
2023/04/21 04:52:20;;;;;;;1.20;1.10;;;;;;;18.22;64.29;99829.81;7398212;19;20544;-59
2023/04/21 04:54:47;;;;;;;1.05;0.70;;;;;;;17.64;75.50;99821.69;7400122;19;20011;-58
2023/04/21 04:57:13;;;;;;;3.08;2.45;;;;;;;19.22;65.19;99810.34;7397592;19;20014;-58
2023/04/21 04:59:39;;;;;;;1.33;1.23;;;;;;;21.18;58.49;99809.72;7401811;19;20010;-58
2023/04/21 05:02:06;;;;;;;2.75;1.23;;;;;;;22.12;54.83;99801.72;7399937;19;20048;-58
2023/04/21 05:04:33;;;;;;;0.40;0.40;;;;;;;21.92;54.06;99796.09;7400284;19;20019;-58
2023/04/21 05:06:59;;;;;;;1.35;1.15;;;;;;;18.94;61.32;99801.50;7399092;19;20014;-58
2023/04/21 05:09:25;;;;;;;1.00;0.98;;;;;;;18.72;68.63;99799.00;7402097;19;20015;-58
2023/04/21 05:11:51;;;;;;;8.05;2.42;;;;;;;20.07;61.48;99794.28;7398962;19;21073;-58
2023/04/21 05:14:17;;;;;;;4.13;1.75;;;;;;;18.24;69.65;99804.69;7400645;19;20098;-58
2023/04/21 05:16:44;;;;;;;1.83;1.38;;;;;;;19.29;69.56;99798.44;7396979;19;20014;-57
2023/04/21 05:19:10;;;;;;;7.35;1.63;;;;;;;17.32;79.87;99810.13;7399928;19;20103;-57
2023/04/21 05:21:36;;;;;;;8.05;1.67;;;;;;;17.89;78.74;99802.72;7397327;19;20013;-58
2023/04/21 05:24:02;;;;;;;8.32;2.58;;;;;;;19.17;68.52;99787.81;7398760;19;20062;-57
2023/04/21 05:26:29;;;;;;;4.28;1.83;;;;;;;19.54;66.65;99782.88;7399036;19;20011;-57
2023/04/21 05:28:56;;;;;;;5.45;2.08;;;;;;;17.87;77.30;99783.56;7400162;19;20015;-58
2023/04/21 05:31:23;;;;;;;7.15;1.95;;;;;;;17.79;79.93;99785.44;7396304;19;20444;-58
2023/04/21 05:33:50;;;;;;;5.43;1.92;;;;;;;18.84;75.93;99777.81;7396215;19;20017;-58
2023/04/21 05:36:16;;;;;;;4.53;1.90;;;;;;;21.22;61.30;99776.19;7396964;19;20059;-57
2023/04/21 05:38:42;;;;;;;5.35;1.95;;;;;;;20.69;64.36;99780.44;7397883;19;20039;-57
2023/04/21 05:41:09;;;;;;;1.45;1.25;;;;;;;22.09;59.16;99765.22;7397402;19;20018;-57
2023/04/21 05:43:35;;;;;;;1.83;1.00;;;;;;;20.99;61.15;99766.63;7398254;19;20015;-57
2023/04/21 05:46:02;;;;;;;3.30;3.10;;;;;;;22.99;55.33;99759.19;7400511;19;20033;-58
2023/04/21 05:48:29;;;;;;;5.47;1.75;;;;;;;23.31;54.00;99757.38;7397526;19;20066;-57
2023/04/21 05:50:55;;;;;;;4.25;1.90;;;;;;;23.61;52.14;99733.13;7398214;19;20007;-58
2023/04/21 05:53:22;;;;;;;3.22;1.67;;;;;;;23.76;51.01;99744.50;7396990;19;20025;-58
2023/04/21 05:55:49;;;;;;;6.20;1.85;;;;;;;24.79;49.22;99738.41;7398813;19;20010;-58
2023/04/21 05:58:15;;;;;;;5.68;2.45;;;;;;;25.58;47.00;99730.28;7397974;19;20026;-58
2023/04/21 06:00:41;;;;;;;11.23;3.85;;;;;;;23.18;50.41;99728.34;7396227;19;20006;-57
2023/04/21 06:03:07;;;;;;;3.17;1.85;;;;;;;22.16;52.80;99719.84;7398350;19;20015;-58
2023/04/21 06:05:33;;;;;;;4.43;1.25;;;;;;;21.71;54.80;99730.88;7397872;19;20045;-57
2023/04/21 06:08:00;;;;;;;1.58;1.42;;;;;;;21.29;56.87;99723.75;7396622;19;20011;-57
2023/04/21 06:10:26;;;;;;;2.83;2.33;;;;;;;22.21;54.61;99704.00;7401971;19;20014;-57
2023/04/21 06:12:52;;;;;;;8.80;1.92;;;;;;;21.77;56.05;99703.91;7395173;19;20018;-57
2023/04/21 06:15:18;;;;;;;5.15;2.85;;;;;;;22.34;55.42;99707.47;7400523;19;20007;-57
2023/04/21 06:17:44;;;;;;;5.22;2.45;;;;;;;24.63;50.51;99694.19;7395491;19;20040;-57
2023/04/21 06:20:11;;;;;;;3.53;2.03;;;;;;;27.88;44.00;99687.63;7399250;19;20521;-57
2023/04/21 06:22:37;;;;;;;3.85;2.83;;;;;;;23.94;47.79;99684.38;7397154;19;20344;-57
2023/04/21 06:25:04;;;;;;;7.60;3.63;;;;;;;22.50;51.45;99679.91;7396748;19;20027;-57
2023/04/21 06:27:30;;;;;;;1.80;1.67;;;;;;;24.13;49.05;99677.53;7397596;19;20014;-57
2023/04/21 06:29:57;;;;;;;4.97;2.63;;;;;;;23.00;51.23;99664.88;7398532;19;20362;-57
2023/04/21 06:32:23;;;;;;;5.13;2.53;;;;;;;23.03;51.84;99672.28;7395646;19;20090;-57
2023/04/21 06:34:49;;;;;;;3.17;1.67;;;;;;;23.75;50.93;99671.91;7396782;19;20027;-57
2023/04/21 06:37:15;;;;;;;6.50;1.75;;;;;;;23.94;48.90;99669.38;7395582;19;20007;-58
2023/04/21 06:39:41;;;;;;;7.07;1.77;;;;;;;24.08;48.74;99645.84;7399025;19;20349;-57
2023/04/21 06:42:08;;;;;;;3.35;2.15;;;;;;;24.85;47.46;99641.31;7396177;19;20022;-58
2023/04/21 06:44:41;;;;;;;4.30;3.22;;;;;;;22.83;50.15;99644.03;7397391;19;20010;-57
2023/04/21 06:47:07;;;;;;;4.53;2.03;;;;;;;21.74;52.86;99639.06;7395171;19;20060;-57
2023/04/21 06:49:35;;;;;;;4.30;1.80;;;;;;;21.59;53.94;99633.31;7397892;19;20050;-57
2023/04/21 06:52:03;;;;;;;9.82;2.65;;;;;;;22.94;51.59;99621.72;7393183;19;20025;-57
2023/04/21 06:54:29;;;;;;;4.32;2.25;;;;;;;22.02;53.29;99618.44;7397806;19;20070;-57
2023/04/21 06:56:56;;;;;;;5.85;2.08;;;;;;;22.02;53.42;99607.84;7396276;19;20010;-57
2023/04/21 06:59:22;;;;;;;7.82;2.63;;;;;;;22.31;53.34;99606.44;7397627;19;20068;-57
2023/04/21 07:01:51;;;;;;;1.88;1.20;;;;;;;23.25;51.09;99597.66;7394332;19;20110;-57
2023/04/21 07:04:17;;;;;;;5.57;2.92;;;;;;;23.41;50.62;99589.16;7394471;19;20316;-57
2023/04/21 07:06:44;;;;;;;4.40;1.83;;;;;;;23.38;51.13;99584.59;7394499;19;20014;-57
2023/04/21 07:09:10;;;;;;;3.67;2.05;;;;;;;24.72;47.83;99578.88;7395049;19;20015;-58
2023/04/21 07:11:37;;;;;;;4.55;2.50;;;;;;;23.73;49.47;99578.63;7394199;19;20014;-58
2023/04/21 07:14:03;;;;;;;5.07;2.67;;;;;;;23.12;49.75;99582.88;7393565;19;20019;-58
2023/04/21 07:16:29;;;;;;;11.32;2.08;;;;;;;22.69;50.93;99574.56;7395355;19;20018;-57
2023/04/21 07:18:55;;;;;;;8.02;1.77;;;;;;;22.16;52.33;99585.75;7399169;19;20014;-57
2023/04/21 07:21:21;;;;;;;3.97;1.45;;;;;;;23.49;50.61;99582.13;7395944;19;20007;-57
2023/04/21 07:23:47;;;;;;;2.65;1.55;;;;;;;24.67;47.60;99580.63;7394698;19;20021;-57
2023/04/21 07:26:14;;;;;;;3.13;1.50;;;;;;;23.70;48.75;99594.00;7392678;19;20011;-57
2023/04/21 07:28:40;;;;;;;1.92;1.45;;;;;;;23.22;50.18;99590.25;7393225;19;20017;-57
2023/04/21 07:31:06;;;;;;;1.55;1.40;;;;;;;23.22;50.47;99587.44;7394504;19;20022;-57
2023/04/21 07:33:32;;;;;;;1.90;1.80;;;;;;;23.07;50.62;99583.84;7392003;19;20456;-57
2023/04/21 07:35:58;;;;;;;2.47;2.28;;;;;;;22.79;51.17;99581.19;7394212;19;20473;-57
2023/04/21 07:38:25;;;;;;;5.18;1.65;;;;;;;21.96;53.17;99572.47;7393247;19;20018;-58
2023/04/21 07:40:51;;;;;;;6.38;2.10;;;;;;;22.87;52.02;99557.13;7392962;19;20014;-58
2023/04/21 07:43:18;;;;;;;3.67;2.00;;;;;;;22.82;51.41;99560.19;7394147;19;20006;-58
2023/04/21 07:45:45;;;;;;;2.95;1.90;;;;;;;23.40;51.38;99554.28;7397808;19;20019;-57
2023/04/21 07:48:11;;;;;;;3.83;1.20;;;;;;;21.86;53.31;99555.22;7391845;19;20504;-58
2023/04/21 07:50:37;;;;;;;7.70;2.45;;;;;;;21.75;53.89;99544.19;7398905;19;20010;-58
2023/04/21 07:53:04;;;;;;;1.48;1.38;;;;;;;22.10;54.35;99546.22;7393202;19;20348;-57
2023/04/21 07:55:30;;;;;;;5.95;1.90;;;;;;;21.91;54.33;99540.13;7398677;19;20019;-58
2023/04/21 07:57:56;;;;;;;4.45;2.17;;;;;;;24.19;51.15;99536.53;7394035;19;20019;-58
2023/04/21 08:00:22;;;;;;;4.07;1.65;;;;;;;27.70;43.09;99529.56;7397481;19;20011;-58
2023/04/21 08:02:49;;;;;;;1.48;1.33;;;;;;;24.83;46.69;99549.97;7391477;19;20011;-58
2023/04/21 08:05:15;;;;;;;9.98;2.55;;;;;;;24.15;48.00;99541.13;7393604;19;20507;-58
2023/04/21 08:07:41;;;;;;;3.25;1.48;;;;;;;23.89;48.56;99542.34;7393393;19;20476;-58
2023/04/21 08:10:08;;;;;;;2.90;1.88;;;;;;;24.30;48.01;99552.41;7397308;19;20490;-58
2023/04/21 08:12:34;;;;;;;1.83;1.27;;;;;;;23.51;48.63;99541.72;7391051;19;20007;-58
2023/04/21 08:15:04;;;;;;;6.82;2.38;;;;;;;24.69;48.38;99543.00;7395719;19;20045;-58
2023/04/21 08:17:30;;;;;;;10.77;2.03;;;;;;;25.15;46.69;99532.00;7393333;19;20338;-58
2023/04/21 08:19:57;;;;;;;4.68;1.88;;;;;;;25.80;45.45;99533.22;7397296;19;20015;-58
2023/04/21 08:22:23;;;;;;;3.92;1.85;;;;;;;24.58;47.04;99543.50;7391547;19;20031;-58
2023/04/21 08:24:49;;;;;;;3.78;2.85;;;;;;;23.29;50.03;99531.91;7391775;19;20011;-58
2023/04/21 08:27:16;;;;;;;10.20;1.60;;;;;;;23.83;50.01;99527.59;7391669;19;20354;-58
2023/04/21 08:29:42;;;;;;;5.68;2.28;;;;;;;24.17;48.84;99539.19;7396708;19;20019;-58
2023/04/21 08:32:08;;;;;;;4.53;1.73;;;;;;;23.15;50.21;99550.50;7392239;19;20053;-58
2023/04/21 08:34:35;;;;;;;4.00;2.78;;;;;;;23.23;51.86;99559.78;7390919;19;20022;-59
2023/04/21 08:37:01;;;;;;;8.93;3.55;;;;;;;22.95;51.49;99552.22;7392846;19;20354;-58
2023/04/21 08:39:27;;;;;;;8.73;2.58;;;;;;;22.55;53.16;99537.81;7395012;19;20044;-59
2023/04/21 08:41:54;;;;;;;5.50;2.28;;;;;;;23.51;51.48;99536.81;7390902;19;20469;-59
2023/04/21 08:44:20;;;;;;;3.90;2.22;;;;;;;22.69;51.71;99537.66;7392676;19;20018;-59
2023/04/21 08:46:50;;;;;;;1.65;1.42;;;;;;;21.67;54.06;99554.72;7392662;19;20078;-58
2023/04/21 08:49:19;;;;;;;4.75;2.38;;;;;;;21.57;55.61;99557.31;7394924;19;20074;-58
2023/04/21 08:51:46;;;;;;;5.35;2.20;;;;;;;20.96;57.64;99556.13;7392392;19;20014;-58
2023/04/21 08:54:12;;;;;;;8.45;2.38;;;;;;;24.54;49.77;99560.22;7392269;19;20046;-59
2023/04/21 08:56:39;;;;;;;11.75;2.60;;;;;;;21.65;55.40;99571.53;7392895;19;20028;-59
2023/04/21 08:59:05;;;;;;;5.93;2.53;;;;;;;26.04;48.47;99565.81;7392744;19;20010;-58
2023/04/21 09:01:31;;;;;;;7.70;2.38;;;;;;;24.69;48.09;99566.56;7392052;19;20070;-59
2023/04/21 09:04:16;;;;;;;3.45;2.38;;;;;;;21.48;55.45;99565.59;7391981;19;20011;-59
2023/04/21 09:06:44;;;;;;;4.35;2.15;;;;;;;21.43;56.75;99570.09;7391866;19;20042;-59
2023/04/21 09:09:11;;;;;;;3.45;2.47;;;;;;;21.45;56.91;99561.78;7394271;19;20006;-59
2023/04/21 09:11:37;;;;;;;2.10;1.90;;;;;;;21.40;58.52;99564.78;7392070;19;20010;-59
2023/04/21 09:14:03;;;;;;;18.38;3.45;;;;;;;21.29;58.04;99565.09;7390874;19;20015;-59
2023/04/21 09:16:34;;;;;;;5.35;3.08;;;;;;;21.39;59.31;99555.53;7394499;19;20395;-59
2023/04/21 09:19:00;;;;;;;4.25;2.08;;;;;;;21.16;60.00;99556.72;7398692;19;20044;-59
2023/04/21 09:21:27;;;;;;;4.93;2.80;;;;;;;21.13;61.53;99553.69;7397766;19;20011;-59
2023/04/21 09:23:56;;;;;;;4.65;2.47;;;;;;;21.19;61.67;99555.59;7399436;19;20045;-59
2023/04/21 09:26:23;;;;;;;6.60;2.78;;;;;;;21.03;63.73;99558.31;7398434;19;20022;-59
2023/04/21 09:28:51;;;;;;;15.10;2.88;;;;;;;21.51;63.22;99553.13;7398803;19;20006;-59
2023/04/21 09:31:23;;;;;;;6.82;2.38;;;;;;;22.07;62.74;99543.78;7395811;19;20015;-59
2023/04/21 09:33:53;;;;;;;4.53;1.73;;;;;;;24.69;56.06;99554.41;7395938;19;20039;-60
2023/04/21 09:36:24;;;;;;;2.13;1.30;;;;;;;26.30;49.97;99545.13;7398581;19;20021;-59
2023/04/21 09:38:53;;;;;;;6.68;1.73;;;;;;;23.61;54.34;99551.16;7399251;19;20341;-60
2023/04/21 09:41:20;;;;;;;6.43;2.33;;;;;;;22.85;57.90;99547.69;7398000;19;20040;-59
2023/04/21 09:43:47;;;;;;;2.58;1.77;;;;;;;21.58;63.62;99553.19;7397341;19;20015;-59
2023/04/21 09:46:16;;;;;;;9.85;1.92;;;;;;;25.22;54.22;99542.59;7397110;19;20474;-60
2023/04/21 09:48:46;;;;;;;2.92;2.22;;;;;;;27.50;48.37;99544.50;7399288;19;20036;-60
2023/04/21 09:51:14;;;;;;;2.00;1.00;;;;;;;27.11;48.02;99540.06;7398136;19;20037;-60
2023/04/21 09:53:42;;;;;;;3.40;1.70;;;;;;;27.43;47.51;99539.66;7395969;19;20017;-60
2023/04/21 09:56:13;;;;;;;3.25;2.72;;;;;;;28.51;45.27;99533.38;7397470;19;20018;-60
2023/04/21 09:58:46;;;;;;;6.82;2.22;;;;;;;28.52;44.50;99531.25;7398402;19;20015;-60
2023/04/21 10:01:13;;;;;;;2.22;0.98;;;;;;;28.09;43.84;99547.50;7396969;19;20040;-61
2023/04/21 10:03:42;;;;;;;3.85;2.20;;;;;;;27.80;43.86;99546.75;7396545;19;20512;-61
2023/04/21 10:06:09;;;;;;;3.63;1.98;;;;;;;29.51;41.85;99538.13;7397090;19;20010;-61
2023/04/21 10:08:35;;;;;;;2.35;1.92;;;;;;;30.03;40.22;99535.88;7398107;19;20070;-60
2023/04/21 10:11:02;;;;;;;1.40;1.23;;;;;;;29.07;41.87;99535.81;7395609;19;20363;-60
2023/04/21 10:13:30;;;;;;;3.35;1.58;;;;;;;29.12;42.31;99541.25;7393960;19;20014;-60
2023/04/21 10:16:02;;;;;;;2.55;1.33;;;;;;;30.95;39.85;99546.78;7401228;19;20022;-61
2023/04/21 10:18:28;;;;;;;1.90;1.80;;;;;;;31.80;37.91;99537.47;7396525;19;20007;-60
2023/04/21 10:21:06;;;;;;;3.65;1.92;;;;;;;32.46;37.28;99526.84;7396667;19;20356;-61
2023/04/21 10:23:51;;;;;;;2.40;2.20;;;;;;;32.58;36.49;99527.53;7397096;19;20040;-60
2023/04/21 10:26:25;;;;;;;1.73;1.58;;;;;;;32.78;36.32;99528.63;7397647;19;20014;-60
2023/04/21 10:28:59;;;;;;;2.53;1.70;;;;;;;32.96;35.38;99525.22;7397772;19;20013;-60
2023/04/21 10:31:28;;;;;;;2.03;0.75;;;;;;;32.71;34.60;99521.03;7396137;19;20014;-59
2023/04/21 10:34:06;;;;;;;1.25;1.08;;;;;;;32.24;35.07;99519.84;7394068;19;20079;-59
2023/04/21 10:37:06;;;;;;;1.77;0.77;;;;;;;32.24;35.38;99514.09;7396092;19;20464;-59
2023/04/21 10:39:37;;;;;;;2.45;1.52;;;;;;;32.36;35.16;99514.75;7397940;19;20010;-58
2023/04/21 10:42:12;;;;;;;;;;;;;;;32.89;34.90;99510.47;7400706;19;20111;-59
2023/04/21 10:44:42;;;;;;;4.55;1.67;;;;;;;32.76;34.56;99516.97;7396382;19;19921;-59
2023/04/21 10:47:08;;;;;;;2.75;1.73;;;;;;;33.06;34.11;99508.44;7396781;19;20025;-59
2023/04/21 10:49:39;;;;;;;3.05;1.27;;;;;;;32.80;33.61;99514.31;7399061;19;20480;-59
2023/04/21 10:52:09;;;;;;;1.77;1.15;;;;;;;32.73;33.96;99506.72;7396523;19;20078;-60
2023/04/21 10:54:45;;;;;;;1.48;0.70;;;;;;;32.73;33.97;99506.72;7396813;19;20037;-59
2023/04/21 10:57:17;;;;;;;1.38;1.05;;;;;;;33.03;33.64;99506.88;7394206;19;20014;-60
2023/04/21 10:59:44;;;;;;;1.02;0.88;;;;;;;33.50;32.77;99510.75;7398645;19;20010;-59
2023/04/21 11:02:12;;;;;;;1.52;1.25;;;;;;;32.94;32.76;99507.78;7394444;19;20017;-59
2023/04/21 11:04:43;;;;;;;1.40;1.30;;;;;;;32.95;32.45;99510.03;7394713;19;20405;-59
2023/04/21 11:07:11;;;;;;;5.55;1.40;;;;;;;32.63;32.73;99509.06;7395311;19;20363;-59
2023/04/21 11:09:40;;;;;;;0.65;0.60;;;;;;;32.33;32.80;99492.97;7397923;19;20026;-59
2023/04/21 11:12:14;;;;;;;3.47;1.40;;;;;;;32.24;33.00;99496.78;7395575;19;20018;-59
2023/04/21 11:14:42;;;;;;;0.55;0.55;;;;;;;32.42;32.48;99497.78;7396992;19;20456;-59
2023/04/21 11:17:16;;;;;;;4.80;2.50;;;;;;;32.06;33.04;99504.41;7394302;19;20018;-59
2023/04/21 11:19:53;;;;;;;2.15;0.57;;;;;;;31.80;33.13;99500.00;7398624;19;20022;-59
2023/04/21 11:22:23;;;;;;;2.08;1.38;;;;;;;31.71;32.78;99495.16;7394435;19;20022;-58
2023/04/21 11:24:52;;;;;;;3.58;1.73;;;;;;;31.62;33.19;99481.72;7395161;19;20013;-59
2023/04/21 11:27:18;;;;;;;1.75;0.70;;;;;;;31.65;33.30;99494.81;7393345;19;20017;-59
2023/04/21 11:29:45;;;;;;;2.65;1.08;;;;;;;32.34;32.62;99488.69;7398448;19;20014;-59
2023/04/21 11:32:12;;;;;;;9.07;1.48;;;;;;;32.09;32.30;99485.88;7392489;19;20460;-59